• Join FlightAware (Why Join?)
  • Login
  • US Flag 
10:45PM EDT


 

Airport Tracker/Info


-or-


 

Live Flight TrackerFlight Track Log ✈ SWA2975 ✈ 30-Jun-2013 ✈ KMDW - KALB

Flight Track Log - Related Links

Times and Time Zones

All times are in EDT time to prevent confusion due to time zone crossing. See the SWA2975 flight status page for this flight to view local times or setup timezone preferences in your user account.

Time Position Orientation Groundspeed Altitude Reporting Facility
EDT Latitude Longitude Course Direction KTS MPH feet Rate Location/Type
10:59PM 41.8030 -87.7740 339° North 148 170 2,100  Level FlightAware
10:59PM 41.8090 -87.7750 353° North 150 173 2,300 1,260 Climbing FlightAware
11:00PM 41.8220 -87.7660 27° Northeast 179 206 2,700 1,080 Climbing FlightAware
11:00PM 41.8270 -87.7520 64° Northeast 200 230 2,900 1,800 Climbing FlightAware
11:00PM 41.8280 -87.7310 86° East 218 251 3,600 2,760 Climbing FlightAware
11:00PM 41.8290 -87.7000 88° East 223 257 4,700 1,680 Climbing FlightAware
11:01PM 41.8290 -87.6600 90° East 239 275 5,000 240 Climbing FlightAware
11:02PM 41.8290 -87.5950 90° East 257 296 5,000 300 Level FlightAware
11:02PM 41.8290 -87.5670 90° East 260 299 5,300 2,220 Climbing FlightAware
11:02PM 41.8300 -87.5220 88° East 262 302 6,700 3,240 Climbing FlightAware
11:03PM 41.8300 -87.4760 90° East 265 305 8,400 3,420 Climbing FlightAware
11:03PM 41.8240 -87.4270 99° East 277 319 10,000 3,120 Climbing FlightAware
11:04PM 41.8120 -87.3590 103° East 293 337 11,900 2,220 Climbing FlightAware
11:05PM 41.7890 -87.2200 102° East 355 409 14,000 2,220 Climbing FlightAware
11:06PM 41.7750 -87.1380 103° East 359 413 15,900 2,580 Climbing FlightAware
11:07PM 41.7630 -87.0030 97° East 380 437 18,300 2,280 Climbing FlightAware
11:07PM 41.7640 -86.9070 89° East 392 451 19,700 2,220 Climbing FlightAware
11:08PM 41.7650 -86.7860 89° East 400 460 21,700 2,100 Climbing FlightAware
11:09PM 41.7660 -86.6840 89° East 412 474 22,900 1,800 Climbing FlightAware
11:10PM 41.7670 -86.5810 89° East 422 486 24,100 1,740 Climbing FlightAware
11:10PM 41.7680 -86.4710 89° East 430 495 25,300 1,680 Climbing FlightAware
11:11PM 41.7680 -86.3690 90° East 438 504 26,400 1,560 Climbing FlightAware
11:12PM 41.7800 -86.2530 82° East 445 512 27,500 1,440 Climbing FlightAware
11:12PM 41.8010 -86.1310 77° East 451 519 28,600 1,440 Climbing FlightAware
11:13PM 41.8220 -86.0080 77° East 456 525 29,700 1,380 Climbing FlightAware
11:14PM 41.8360 -85.9050 80° East 461 531 30,500 1,260 Climbing FlightAware
11:15PM 41.8610 -85.7080 80° East 457 526 32,300 1,260 Climbing FlightAware
11:16PM 41.8820 -85.5460 80° East 469 540 33,200 960 Climbing FlightAware
11:17PM 41.8980 -85.4170 80° East 478 550 33,700 720 Climbing FlightAware
11:17PM 41.9120 -85.3010 81° East 484 557 34,200 720 Climbing FlightAware
11:18PM 41.9270 -85.1800 81° East 490 564 34,700 540 Climbing FlightAware
11:19PM 41.9430 -85.0500 81° East 496 571 35,000 120 Climbing FlightAware
11:20PM 41.9640 -84.8870 80° East 496 571 35,000 480 Level FlightAware
11:20PM 41.9800 -84.7420 82° East 484 557 35,900 720 Climbing FlightAware
11:21PM 41.9930 -84.6310 81° East 485 558 36,000 60 Climbing FlightAware
11:22PM 42.0070 -84.5130 81° East 487 560 36,000  Level FlightAware
11:22PM 42.0210 -84.3940 81° East 489 563 36,000  Level FlightAware
11:23PM 42.0370 -84.2550 81° East 490 564 36,000  Level FlightAware
11:24PM 42.0510 -84.1350 81° East 491 565 36,000  Level FlightAware
11:25PM 42.0670 -83.9950 81° East 498 573 36,000 180 Level FlightAware
11:25PM 42.0810 -83.8690 81° East 508 585 36,300 600 Climbing FlightAware
11:26PM 42.0950 -83.7390 82° East 507 583 36,900 480 Climbing FlightAware
11:27PM 42.1100 -83.6060 81° East 504 580 37,000 60 Climbing FlightAware
11:27PM 42.1210 -83.4970 82° East 502 578 37,000  Level FlightAware
11:28PM 42.1350 -83.3710 81° East 501 577 37,000  Level FlightAware
11:29PM 42.1480 -83.2460 82° East 501 577 37,000  Level FlightAware
11:29PM 42.1640 -83.0990 82° East 500 575 37,000  Level FlightAware
11:30PM 42.1760 -82.9730 83° East 500 575 37,000  Level FlightAware
11:31PM 42.1890 -82.8540 82° East 500 575 37,000  Level FlightAware
11:32PM 42.2020 -82.7220 82° East 501 577 37,000  Level FlightAware
11:32PM 42.2140 -82.6040 82° East 502 578 37,000  Level FlightAware
11:33PM 42.2290 -82.4470 83° East 502 578 37,000  Level FlightAware
11:34PM 42.2410 -82.3260 82° East 505 581 37,000  Level FlightAware
11:34PM 42.2560 -82.1740 82° East 507 583 37,000  Level FlightAware
11:35PM 42.2680 -82.0460 83° East 509 586 37,000  Level FlightAware
11:36PM 42.2800 -81.9160 83° East 509 586 37,000  Level FlightAware
11:36PM 42.2930 -81.7770 83° East 508 585 37,000  Level FlightAware
11:37PM 42.3050 -81.6470 83° East 508 585 37,000  Level FlightAware
11:38PM 42.3170 -81.5140 83° East 508 585 37,000  Level FlightAware
11:39PM 42.3290 -81.3870 83° East 509 586 37,000  Level FlightAware
11:39PM 42.3400 -81.2590 83° East 508 585 37,000  Level FlightAware
11:40PM 42.3510 -81.1250 84° East 508 585 37,000  Level FlightAware
11:41PM 42.3620 -80.9970 83° East 509 586 37,000  Level FlightAware
11:41PM 42.3750 -80.8510 83° East 509 586 37,000  Level FlightAware
11:42PM 42.3850 -80.7260 84° East 509 586 37,000  Level FlightAware
11:43PM 42.3970 -80.5880 83° East 509 586 37,000  Level FlightAware
11:44PM 42.4120 -80.4030 84° East 510 587 37,000  Level FlightAware
11:44PM 42.4210 -80.2830 84° East 511 588 37,000  Level FlightAware
11:45PM 42.4320 -80.1500 84° East 511 588 37,000  Level FlightAware
11:46PM 42.4430 -80.0030 84° East 511 588 37,000  Level FlightAware
11:46PM 42.4520 -79.8820 84° East 510 587 37,000  Level FlightAware
11:47PM 42.4620 -79.7400 84° East 508 585 37,000  Level FlightAware
11:48PM 42.4720 -79.6130 84° East 508 585 37,000  Level FlightAware
11:49PM 42.4810 -79.4830 85° East 508 585 37,000  Level FlightAware
11:49PM 42.4910 -79.3440 84° East 508 585 37,000  Level FlightAware
11:50PM 42.5000 -79.2150 85° East 508 585 37,000  Level FlightAware
11:51PM 42.5100 -79.0780 84° East 508 585 37,000 -300 Level FlightAware
11:51PM 42.5180 -78.9480 85° East 511 588 36,600 -840 Descending FlightAware
11:52PM 42.5280 -78.8120 84° East 514 592 35,900 -1,020 Descending FlightAware
11:53PM 42.5360 -78.6820 85° East 515 593 35,200 -1,020 Descending FlightAware
11:54PM 42.5450 -78.5410 85° East 505 581 34,500 -1,020 Descending FlightAware
11:54PM 42.5530 -78.4160 85° East 501 577 33,800 -1,080 Descending FlightAware
11:55PM 42.5610 -78.2900 85° East 499 574 33,100 -600 Descending FlightAware
11:56PM 42.5690 -78.1550 85° East 498 573 33,000 -120 Descending FlightAware
11:56PM 42.5760 -78.0280 86° East 497 572 33,000 -240 Level FlightAware
11:57PM 42.5840 -77.8930 85° East 501 577 32,700 -660 Descending FlightAware
11:58PM 42.5910 -77.7750 85° East 499 574 32,100 -1,020 Descending FlightAware
11:58PM 42.5990 -77.6270 86° East 487 560 31,300 -1,080 Descending FlightAware
11:59PM 42.6060 -77.5070 85° East 482 555 30,600 -1,080 Descending FlightAware
12:00AM 42.6130 -77.3730 86° East 473 544 29,800 -1,020 Descending FlightAware
12:00AM 42.6190 -77.2580 86° East 458 527 29,200 -600 Descending FlightAware
12:01AM 42.6260 -77.1320 86° East 454 522 29,000 -180 Descending FlightAware
12:02AM 42.6310 -77.0220 86° East 451 519 29,000  Level FlightAware
12:03AM 42.6370 -76.8950 86° East 447 514 29,000  Level FlightAware
12:03AM 42.6430 -76.7840 86° East 443 510 29,000  Level FlightAware
12:04AM 42.6490 -76.6640 86° East 439 505 29,000  Level FlightAware
12:05AM 42.6540 -76.5530 86° East 436 502 29,000  Level FlightAware
12:05AM 42.6590 -76.4440 86° East 432 497 29,000  Level FlightAware
12:06AM 42.6540 -76.3400 94° East 419 482 29,000  Level FlightAware
12:07AM 42.6380 -76.2250 101° East 419 482 29,000  Level FlightAware
12:07AM 42.6170 -76.1130 104° East 418 481 29,000  Level FlightAware
12:08AM 42.5940 -76.0020 106° East 424 488 29,000 -180 Level FlightAware
12:09AM 42.5680 -75.9010 109° East 428 493 28,800 -1,080 Descending FlightAware
12:10AM 42.5390 -75.7890 109° East 418 481 27,500 -1,680 Descending FlightAware
12:10AM 42.5130 -75.6940 110° East 404 465 26,500 -1,500 Descending FlightAware
12:11AM 42.4890 -75.5960 108° East 397 457 25,500 -1,560 Descending FlightAware
12:12AM 42.4790 -75.4870 97° East 390 449 24,300 -1,860 Descending FlightAware
12:12AM 42.4690 -75.3920 98° East 394 453 22,900 -2,100 Descending FlightAware
12:13AM 42.4620 -75.2530 94° East 398 458 21,000 -1,740 Descending FlightAware
12:14AM 42.4770 -75.1550 78° East 387 445 20,100 -840 Descending FlightAware
12:15AM 42.5250 -74.9740 70° East 391 450 19,200 -240 Descending FlightAware
12:18AM 42.5970 -74.7030 70° East 391 450 19,200  Level FlightAware
12:18AM 42.6160 -74.6310 70° East 391 450 19,200 -2,220 Level FlightAware
12:24AM 42.8080 -73.9770 68° East 262 302 5,500 -2,400 Descending FlightAware
12:24AM 42.8120 -73.9690 56° Northeast 262 302 5,400 -600 Descending FlightAware
12:25AM 42.8400 -73.9130 56° Northeast 233 268 5,000 -660 Descending FlightAware
12:25AM 42.8600 -73.8730 56° Northeast 218 251 4,600 -900 Descending FlightAware
12:26AM 42.8720 -73.8480 57° Northeast 202 232 4,200 -1,020 Descending FlightAware
12:26AM 42.8790 -73.8340 56° Northeast 197 227 4,000 -1,020 Descending FlightAware
12:27AM 42.8910 -73.8080 58° Northeast 180 207 3,500 -600 Descending FlightAware
12:27AM 42.8980 -73.7860 67° East 180 207 3,500 -1,380 Level FlightAware
12:28AM 42.8486 -73.7994 67° East 93 107 1,800 -1,020 Descending Boston Center
12:29AM 42.8322 -73.7819 142° Southeast 93 107 1,700 -120 Descending Boston Center